createdAt,value
2022-07-29T00:00:07.741Z,2.90
2022-07-29T00:02:53.056Z,2.72
2022-07-29T00:05:42.809Z,3.50
2022-07-29T00:08:35.530Z,3.63
2022-07-29T00:11:20.923Z,3.92
2022-07-29T00:14:06.750Z,3.92
2022-07-29T00:16:52.367Z,3.47
2022-07-29T00:19:37.710Z,3.67
2022-07-29T00:22:23.302Z,3.97
2022-07-29T00:25:08.988Z,3.72
2022-07-29T00:27:54.201Z,4.20
2022-07-29T00:30:39.576Z,3.20
2022-07-29T00:33:25.213Z,3.90
2022-07-29T00:36:10.387Z,3.78
2022-07-29T00:38:55.530Z,3.42
2022-07-29T00:41:41.056Z,3.20
2022-07-29T00:44:26.612Z,3.63
2022-07-29T00:47:12.599Z,4.18
2022-07-29T00:49:57.725Z,4.00
2022-07-29T00:52:43.683Z,3.70
2022-07-29T00:55:30.492Z,4.20
2022-07-29T00:58:16.027Z,3.60
2022-07-29T01:01:01.941Z,3.50
2022-07-29T01:03:47.503Z,3.72
2022-07-29T01:06:34.374Z,4.22
2022-07-29T01:09:43.000Z,4.00
2022-07-29T01:12:27.817Z,3.88
2022-07-29T01:15:13.619Z,3.72
2022-07-29T01:18:10.609Z,4.20
2022-07-29T01:21:24.771Z,4.18
2022-07-29T01:24:54.611Z,3.95
2022-07-29T01:27:52.471Z,3.88
2022-07-29T01:30:39.734Z,3.80
2022-07-29T01:33:46.174Z,3.75
2022-07-29T01:36:36.113Z,4.07
2022-07-29T01:39:31.211Z,4.10
2022-07-29T01:42:33.043Z,3.47
2022-07-29T01:45:22.757Z,3.83
2022-07-29T01:48:43.571Z,4.15
2022-07-29T01:51:36.781Z,3.45
2022-07-29T01:54:46.750Z,4.00
2022-07-29T01:57:34.802Z,3.97
2022-07-29T02:00:21.102Z,3.50
2022-07-29T02:03:12.203Z,3.72
2022-07-29T02:05:58.347Z,3.60
2022-07-29T02:08:45.301Z,4.18
2022-07-29T02:11:34.180Z,3.72
2022-07-29T02:14:22.145Z,3.92
2022-07-29T02:17:08.670Z,3.65
2022-07-29T02:20:00.098Z,3.55
2022-07-29T02:22:46.525Z,3.38
2022-07-29T02:25:36.998Z,3.15
2022-07-29T02:28:27.550Z,3.72
2022-07-29T02:31:14.745Z,3.83
2022-07-29T02:34:07.337Z,3.88
2022-07-29T02:36:53.479Z,3.22
2022-07-29T02:39:41.878Z,3.15
2022-07-29T02:42:28.825Z,4.07
2022-07-29T02:45:14.372Z,3.67
2022-07-29T02:48:01.748Z,3.35
2022-07-29T02:50:52.791Z,3.33
2022-07-29T02:53:40.030Z,3.70
2022-07-29T02:56:28.948Z,3.75
2022-07-29T02:59:19.022Z,4.03
2022-07-29T03:02:08.066Z,3.53
2022-07-29T03:04:56.383Z,3.70
2022-07-29T03:10:34.106Z,3.45
2022-07-29T03:13:20.135Z,4.00
2022-07-29T03:16:07.039Z,3.92
2022-07-29T03:18:53.104Z,3.50
2022-07-29T03:21:38.411Z,3.20
2022-07-29T03:24:33.869Z,3.97
2022-07-29T03:27:19.342Z,3.40
2022-07-29T03:30:06.086Z,3.38
2022-07-29T03:32:54.403Z,3.58
2022-07-29T03:35:41.879Z,3.28
2022-07-29T03:38:30.059Z,3.15
2022-07-29T03:41:16.042Z,4.03
2022-07-29T03:44:02.859Z,3.88
2022-07-29T03:46:50.414Z,4.10
2022-07-29T03:49:38.704Z,4.07
2022-07-29T03:52:24.224Z,3.83
2022-07-29T03:55:10.235Z,3.33
2022-07-29T03:57:57.739Z,3.65
2022-07-29T04:00:44.014Z,3.75
2022-07-29T04:03:30.623Z,3.88
2022-07-29T04:06:15.929Z,4.15
2022-07-29T04:09:01.211Z,3.53
2022-07-29T04:12:03.420Z,4.22
2022-07-29T04:14:49.675Z,3.53
2022-07-29T04:17:35.467Z,4.07
2022-07-29T04:20:20.875Z,3.70
2022-07-29T04:23:05.997Z,3.22
2022-07-29T04:25:51.449Z,3.17
2022-07-29T04:28:36.516Z,3.42
2022-07-29T04:31:25.751Z,3.22
2022-07-29T04:34:12.350Z,4.68
2022-07-29T04:36:57.444Z,3.28
2022-07-29T04:39:43.213Z,3.40
2022-07-29T04:42:28.166Z,4.88
2022-07-29T04:45:15.214Z,3.30
2022-07-29T04:48:01.657Z,3.72
2022-07-29T04:50:47.029Z,4.15
2022-07-29T04:53:32.227Z,3.58
2022-07-29T04:56:17.277Z,4.00
2022-07-29T04:59:02.845Z,4.10
2022-07-29T05:01:43.784Z,3.08
2022-07-29T05:04:29.145Z,4.35
2022-07-29T05:07:15.135Z,4.70
2022-07-29T05:10:00.521Z,3.60
2022-07-29T05:12:45.809Z,3.20
2022-07-29T05:15:31.337Z,3.70
2022-07-29T05:18:16.682Z,3.67
2022-07-29T05:21:01.886Z,2.95
2022-07-29T05:23:46.964Z,3.47
2022-07-29T05:26:32.454Z,3.17
2022-07-29T05:29:44.566Z,3.55
2022-07-29T05:32:22.676Z,3.25
2022-07-29T05:35:08.480Z,2.78
2022-07-29T05:37:54.017Z,3.72
2022-07-29T05:40:39.267Z,3.60
2022-07-29T05:43:24.223Z,3.40
2022-07-29T05:46:10.115Z,3.10
2022-07-29T05:48:55.780Z,3.67
2022-07-29T05:51:41.105Z,3.40
2022-07-29T05:54:26.733Z,3.10
2022-07-29T05:57:19.643Z,3.95
2022-07-29T06:00:05.408Z,3.05
2022-07-29T06:02:57.781Z,3.28
2022-07-29T06:05:43.005Z,3.00
2022-07-29T06:08:28.319Z,3.97
2022-07-29T06:11:13.516Z,2.78
2022-07-29T06:13:58.870Z,3.08
2022-07-29T06:16:43.998Z,3.30
2022-07-29T06:19:29.740Z,3.40
2022-07-29T06:22:18.327Z,2.88
2022-07-29T06:25:04.570Z,3.00
2022-07-29T06:27:50.058Z,2.92
2022-07-29T06:30:35.467Z,3.38
2022-07-29T06:33:20.780Z,3.03
2022-07-29T06:36:06.814Z,4.18
2022-07-29T06:38:52.472Z,2.72
2022-07-29T06:41:39.144Z,3.13
2022-07-29T06:44:28.471Z,3.92
2022-07-29T06:47:13.676Z,2.92
2022-07-29T06:49:58.996Z,3.50
2022-07-29T06:52:44.825Z,3.80
2022-07-29T06:55:30.329Z,2.97
2022-07-29T06:58:18.805Z,4.25
2022-07-29T07:01:13.672Z,3.60
2022-07-29T07:03:59.243Z,4.18
2022-07-29T07:06:44.064Z,2.80
2022-07-29T07:09:40.044Z,4.88
2022-07-29T07:12:26.407Z,4.47
2022-07-29T07:15:11.691Z,3.08
2022-07-29T07:17:56.868Z,4.65
2022-07-29T07:20:42.746Z,2.97
2022-07-29T07:23:28.030Z,3.00
2022-07-29T07:26:13.228Z,2.78
2022-07-29T07:28:58.795Z,3.03
2022-07-29T07:31:46.670Z,2.72
2022-07-29T07:34:32.199Z,2.67
2022-07-29T07:37:18.111Z,3.03
2022-07-29T07:40:05.069Z,2.83
2022-07-29T07:42:50.732Z,3.35
2022-07-29T07:45:38.161Z,3.13
2022-07-29T07:48:24.053Z,2.63
2022-07-29T07:51:09.336Z,2.53
2022-07-29T07:53:54.687Z,2.58
2022-07-29T07:56:40.283Z,3.00
2022-07-29T07:59:25.776Z,3.03
2022-07-29T08:02:10.980Z,2.25
2022-07-29T08:04:56.499Z,2.40
2022-07-29T08:07:46.587Z,2.95
2022-07-29T08:10:50.625Z,2.40
2022-07-29T08:13:36.350Z,2.20
2022-07-29T08:16:21.871Z,2.50
2022-07-29T08:19:10.098Z,2.22
2022-07-29T08:21:56.710Z,2.08
2022-07-29T08:24:45.190Z,3.00
2022-07-29T08:27:43.412Z,2.90
2022-07-29T08:30:29.574Z,2.35
2022-07-29T08:33:14.943Z,2.50
2022-07-29T08:36:00.389Z,2.85
2022-07-29T08:38:46.394Z,2.42
2022-07-29T08:41:32.376Z,2.40
2022-07-29T08:44:29.620Z,1.95
2022-07-29T08:47:16.943Z,2.80
2022-07-29T08:50:02.156Z,2.92
2022-07-29T08:52:49.966Z,2.28
2022-07-29T08:55:35.961Z,2.47
2022-07-29T08:58:23.239Z,2.20
2022-07-29T09:01:12.848Z,2.58
2022-07-29T09:04:02.450Z,2.40
2022-07-29T09:06:51.124Z,4.25
2022-07-29T09:09:36.582Z,2.53
2022-07-29T09:12:29.602Z,2.40
2022-07-29T09:15:16.207Z,2.40
2022-07-29T09:18:03.038Z,2.10
2022-07-29T09:21:11.818Z,3.10
2022-07-29T09:24:14.182Z,2.13
2022-07-29T09:26:59.844Z,2.33
2022-07-29T09:29:45.318Z,2.40
2022-07-29T09:32:30.886Z,2.17
2022-07-29T09:35:22.783Z,2.40
2022-07-29T09:38:13.665Z,2.00
2022-07-29T09:41:05.473Z,2.13
2022-07-29T09:43:59.633Z,2.80
2022-07-29T09:47:08.687Z,2.30
2022-07-29T09:50:00.707Z,2.58
2022-07-29T09:52:48.976Z,2.63
2022-07-29T09:55:46.494Z,2.33
2022-07-29T09:58:34.538Z,2.08
2022-07-29T10:01:29.201Z,2.40
2022-07-29T10:04:14.703Z,2.17
2022-07-29T10:07:04.651Z,2.10
2022-07-29T10:09:55.706Z,2.35
2022-07-29T10:13:06.385Z,2.28
2022-07-29T10:15:54.059Z,1.75
2022-07-29T10:18:40.516Z,1.85
2022-07-29T10:21:35.365Z,2.78
2022-07-29T10:24:21.959Z,1.95
2022-07-29T10:27:08.945Z,1.85
2022-07-29T10:29:57.370Z,2.58
2022-07-29T10:33:12.368Z,1.92
2022-07-29T10:36:16.454Z,2.00
2022-07-29T10:39:18.777Z,1.73
2022-07-29T10:42:29.860Z,1.98
2022-07-29T10:45:20.614Z,2.22
2022-07-29T10:48:07.999Z,1.90
2022-07-29T10:51:04.968Z,1.55
2022-07-29T10:53:54.016Z,2.22
2022-07-29T10:56:41.203Z,2.22
2022-07-29T10:59:40.477Z,1.77
2022-07-29T11:02:55.993Z,1.80
2022-07-29T11:06:01.926Z,1.80
2022-07-29T11:09:16.622Z,2.17
2022-07-29T11:12:02.962Z,1.80
2022-07-29T11:15:00.241Z,1.80
2022-07-29T11:17:54.705Z,2.00
2022-07-29T11:20:42.999Z,2.42
2022-07-29T11:23:36.497Z,1.90
2022-07-29T11:26:23.939Z,2.58
2022-07-29T11:29:23.320Z,1.85
2022-07-29T11:32:18.377Z,2.28
2022-07-29T11:38:31.867Z,2.35
2022-07-29T11:45:41.850Z,1.88
2022-07-29T11:48:29.126Z,2.17
2022-07-29T11:51:17.145Z,2.78
2022-07-29T11:54:04.468Z,2.50
2022-07-29T11:56:52.728Z,2.60
2022-07-29T11:59:45.130Z,2.67
2022-07-29T12:02:48.336Z,2.60
2022-07-29T12:05:47.937Z,2.35
2022-07-29T12:07:01.818Z,2.25
2022-07-29T12:08:43.517Z,2.30
2022-07-29T12:11:29.539Z,2.50
2022-07-29T12:14:32.228Z,2.45
2022-07-29T12:17:27.167Z,3.20
2022-07-29T12:20:28.046Z,2.92
2022-07-29T12:23:17.322Z,2.33
2022-07-29T12:28:56.738Z,3.03
2022-07-29T12:31:45.324Z,2.63
2022-07-29T12:34:31.916Z,2.70
2022-07-29T12:37:17.735Z,2.33
2022-07-29T12:40:05.222Z,2.80
2022-07-29T12:43:14.042Z,2.20
2022-07-29T12:46:14.729Z,2.60
2022-07-29T12:49:04.111Z,2.70
2022-07-29T12:51:53.235Z,2.78
2022-07-29T12:54:48.289Z,2.92
2022-07-29T12:57:47.708Z,3.28
2022-07-29T13:00:40.302Z,3.08
2022-07-29T13:03:42.285Z,2.90
2022-07-29T13:06:49.685Z,2.65
2022-07-29T13:09:42.159Z,2.50
2022-07-29T13:12:27.461Z,3.00
2022-07-29T13:15:21.745Z,2.67
2022-07-29T13:18:30.918Z,3.63
2022-07-29T13:21:18.809Z,3.40
2022-07-29T13:24:09.675Z,3.20
2022-07-29T13:26:55.188Z,2.97
2022-07-29T13:29:41.349Z,2.65
2022-07-29T13:32:29.122Z,2.80
2022-07-29T13:35:14.666Z,2.65
2022-07-29T13:37:59.943Z,3.20
2022-07-29T13:40:45.796Z,2.42
2022-07-29T13:43:31.222Z,4.18
2022-07-29T13:46:16.925Z,3.20
2022-07-29T13:49:02.273Z,3.60
2022-07-29T13:51:47.349Z,3.25
2022-07-29T13:54:33.073Z,3.17
2022-07-29T13:57:18.241Z,3.35
2022-07-29T14:00:04.202Z,3.13
2022-07-29T14:02:53.875Z,2.40
2022-07-29T14:05:39.204Z,2.53
2022-07-29T14:08:24.565Z,2.55
2022-07-29T14:11:09.882Z,2.70
2022-07-29T14:13:55.475Z,2.63
2022-07-29T14:16:46.381Z,2.92
2022-07-29T14:19:39.808Z,2.65
2022-07-29T14:22:26.217Z,2.80
2022-07-29T14:25:14.902Z,2.50
2022-07-29T14:28:00.957Z,3.00
2022-07-29T14:30:46.581Z,2.72
2022-07-29T14:33:32.026Z,3.17
2022-07-29T14:36:17.476Z,2.70
2022-07-29T14:39:03.087Z,2.80
2022-07-29T14:41:48.664Z,3.47
2022-07-29T14:44:34.550Z,2.50
2022-07-29T14:47:20.498Z,3.17
2022-07-29T14:50:07.550Z,2.90
2022-07-29T14:52:53.904Z,2.60
2022-07-29T14:55:40.384Z,3.20
2022-07-29T14:58:31.613Z,2.78
2022-07-29T15:01:17.285Z,2.83
2022-07-29T15:04:03.400Z,2.78
2022-07-29T15:06:49.473Z,3.08
2022-07-29T15:09:36.287Z,3.08
2022-07-29T15:12:25.759Z,3.08
2022-07-29T15:15:11.122Z,3.00
2022-07-29T15:17:56.505Z,2.50
2022-07-29T15:20:41.822Z,3.00
2022-07-29T15:23:27.107Z,3.00
2022-07-29T15:26:12.388Z,3.00
2022-07-29T15:28:57.676Z,3.10
2022-07-29T15:31:43.587Z,3.00
2022-07-29T15:34:28.911Z,3.22
2022-07-29T15:37:14.263Z,2.97
2022-07-29T15:40:00.203Z,2.85
2022-07-29T15:42:45.435Z,2.75
2022-07-29T15:45:40.621Z,3.03
2022-07-29T15:48:25.987Z,3.20
2022-07-29T15:51:11.411Z,2.97
2022-07-29T15:53:57.012Z,2.72
2022-07-29T15:56:42.346Z,3.08
2022-07-29T15:59:27.507Z,2.75
2022-07-29T16:02:12.961Z,2.72
2022-07-29T16:04:58.101Z,2.63
2022-07-29T16:07:43.464Z,3.05
2022-07-29T16:10:28.905Z,2.40
2022-07-29T16:13:17.823Z,2.78
2022-07-29T16:16:04.477Z,3.28
2022-07-29T16:18:50.140Z,2.40
2022-07-29T16:21:38.489Z,2.80
2022-07-29T16:24:29.589Z,2.90
2022-07-29T16:27:15.235Z,2.25
2022-07-29T16:30:00.528Z,2.78
2022-07-29T16:32:47.270Z,2.45
2022-07-29T16:35:39.433Z,2.63
2022-07-29T16:38:25.313Z,2.72
2022-07-29T16:41:10.570Z,3.10
2022-07-29T16:43:55.740Z,2.65
2022-07-29T16:46:44.221Z,2.90
2022-07-29T16:49:30.631Z,2.40
2022-07-29T16:52:16.145Z,2.38
2022-07-29T16:55:01.809Z,2.42
2022-07-29T16:57:47.123Z,2.30
2022-07-29T17:00:32.615Z,2.88
2022-07-29T17:03:18.120Z,3.13
2022-07-29T17:06:03.609Z,2.83
2022-07-29T17:08:49.098Z,2.33
2022-07-29T17:11:52.581Z,2.80
2022-07-29T17:14:40.136Z,2.65
2022-07-29T17:17:38.401Z,2.80
2022-07-29T17:20:26.471Z,2.42
2022-07-29T17:23:11.843Z,2.50
2022-07-29T17:25:56.890Z,2.75
2022-07-29T17:28:42.436Z,2.20
2022-07-29T17:31:27.972Z,2.40
2022-07-29T17:34:13.235Z,2.58
2022-07-29T17:36:58.740Z,2.38
2022-07-29T17:39:44.391Z,2.10
2022-07-29T17:42:29.549Z,2.47
2022-07-29T17:45:14.967Z,2.22
2022-07-29T17:48:00.069Z,2.70
2022-07-29T17:50:46.989Z,2.80
2022-07-29T17:53:32.552Z,3.15
2022-07-29T17:56:18.086Z,2.40
2022-07-29T17:59:06.387Z,3.03
2022-07-29T18:01:53.127Z,2.60
2022-07-29T18:04:38.775Z,2.58
2022-07-29T18:07:24.310Z,2.33
2022-07-29T18:10:09.781Z,2.80
2022-07-29T18:12:55.218Z,2.00
2022-07-29T18:15:40.889Z,2.80
2022-07-29T18:18:26.395Z,2.90
2022-07-29T18:21:11.689Z,2.30
2022-07-29T18:23:56.882Z,2.35
2022-07-29T18:26:42.113Z,2.72
2022-07-29T18:29:28.940Z,2.30
2022-07-29T18:32:14.345Z,2.50
2022-07-29T18:35:02.530Z,2.53
2022-07-29T18:38:01.915Z,2.22
2022-07-29T18:40:48.299Z,2.55
2022-07-29T18:43:33.421Z,2.33
2022-07-29T18:46:19.568Z,2.60
2022-07-29T18:49:05.260Z,2.38
2022-07-29T18:51:52.080Z,2.25
2022-07-29T18:54:37.443Z,2.67
2022-07-29T18:57:54.061Z,2.30
2022-07-29T19:00:28.586Z,2.72
2022-07-29T19:03:14.627Z,2.85
2022-07-29T19:06:00.456Z,2.10
2022-07-29T19:08:45.671Z,2.30
2022-07-29T19:11:30.870Z,2.53
2022-07-29T19:14:16.024Z,2.53
2022-07-29T19:17:01.551Z,2.20
2022-07-29T19:19:46.869Z,2.47
2022-07-29T19:22:33.171Z,2.42
2022-07-29T19:25:19.532Z,2.53
2022-07-29T19:28:05.057Z,2.35
2022-07-29T19:30:51.070Z,2.00
2022-07-29T19:33:36.691Z,2.58
2022-07-29T19:36:23.910Z,2.70
2022-07-29T19:39:09.218Z,3.00
2022-07-29T19:41:59.209Z,2.40
2022-07-29T19:44:46.732Z,2.67
2022-07-29T19:47:31.998Z,3.03
2022-07-29T19:50:17.630Z,2.30
2022-07-29T19:53:02.779Z,2.10
2022-07-29T19:55:48.202Z,2.63
2022-07-29T19:58:33.763Z,2.53
2022-07-29T20:01:20.077Z,2.28
2022-07-29T20:04:05.421Z,2.22
2022-07-29T20:06:53.147Z,2.55
2022-07-29T20:09:40.872Z,2.50
2022-07-29T20:12:26.094Z,2.50
2022-07-29T20:15:16.343Z,2.42
2022-07-29T20:18:02.071Z,2.28
2022-07-29T20:20:49.502Z,2.72
2022-07-29T20:23:34.978Z,2.15
2022-07-29T20:26:20.342Z,2.25
2022-07-29T20:29:05.749Z,2.72
2022-07-29T20:31:52.909Z,2.20
2022-07-29T20:34:41.555Z,3.03
2022-07-29T20:37:26.991Z,2.13
2022-07-29T20:40:12.929Z,2.50
2022-07-29T20:42:58.217Z,1.92
2022-07-29T20:45:43.471Z,2.65
2022-07-29T20:48:28.579Z,2.55
2022-07-29T20:51:14.685Z,2.28
2022-07-29T20:54:03.628Z,2.33
2022-07-29T20:56:49.179Z,2.58
2022-07-29T20:59:34.469Z,2.20
2022-07-29T21:02:19.880Z,2.35
2022-07-29T21:05:06.216Z,2.08
2022-07-29T21:07:55.351Z,2.15
2022-07-29T21:10:43.268Z,2.67
2022-07-29T21:13:28.505Z,2.25
2022-07-29T21:16:14.762Z,2.15
2022-07-29T21:19:02.118Z,2.40
2022-07-29T21:21:47.264Z,2.40
2022-07-29T21:24:32.511Z,2.58
2022-07-29T21:27:38.193Z,3.33
2022-07-29T21:30:23.914Z,2.40
2022-07-29T21:33:09.466Z,2.20
2022-07-29T21:39:06.873Z,2.80
2022-07-29T21:41:52.360Z,2.50
2022-07-29T21:44:40.895Z,2.42
2022-07-29T21:47:26.388Z,2.38
2022-07-29T21:50:11.568Z,2.03
2022-07-29T21:52:56.943Z,2.10
2022-07-29T21:55:44.741Z,2.40
2022-07-29T21:58:30.023Z,2.60
2022-07-29T22:01:15.399Z,2.30
2022-07-29T22:04:00.743Z,2.17
2022-07-29T22:06:45.977Z,3.03
2022-07-29T22:09:31.166Z,2.72
2022-07-29T22:12:16.759Z,2.30
2022-07-29T22:15:01.976Z,2.10
2022-07-29T22:17:47.384Z,3.03
2022-07-29T22:20:32.727Z,2.30
2022-07-29T22:23:18.399Z,2.55
2022-07-29T22:26:03.909Z,2.42
2022-07-29T22:28:49.266Z,2.50
2022-07-29T22:31:34.525Z,2.58
2022-07-29T22:34:19.896Z,2.38
2022-07-29T22:37:05.385Z,2.40
2022-07-29T22:39:51.009Z,2.45
2022-07-29T22:42:36.377Z,2.75
2022-07-29T22:45:26.084Z,2.50
2022-07-29T22:48:11.652Z,2.83
2022-07-29T22:50:57.843Z,2.60
2022-07-29T22:53:43.412Z,2.30
2022-07-29T22:56:29.179Z,2.10
2022-07-29T22:59:14.527Z,2.88
2022-07-29T23:01:59.987Z,2.80
2022-07-29T23:04:45.747Z,2.35
2022-07-29T23:07:30.904Z,2.20
2022-07-29T23:10:16.501Z,2.40
2022-07-29T23:13:01.855Z,2.35
2022-07-29T23:15:47.401Z,1.98
2022-07-29T23:18:32.385Z,2.50
2022-07-29T23:21:20.768Z,2.45
2022-07-29T23:24:06.354Z,2.30
2022-07-29T23:26:56.462Z,2.50
2022-07-29T23:29:44.363Z,2.60
2022-07-29T23:32:30.148Z,2.17
2022-07-29T23:35:15.560Z,2.67
2022-07-29T23:38:01.085Z,2.55
2022-07-29T23:40:46.599Z,2.42
2022-07-29T23:43:31.779Z,2.50
2022-07-29T23:46:16.992Z,1.90
2022-07-29T23:49:09.718Z,2.65
2022-07-29T23:51:55.309Z,3.53
2022-07-29T23:54:40.696Z,2.60
2022-07-29T23:57:26.443Z,2.85
